sensor_id;sensor_type;location;lat;lon;timestamp;P1;durP1;ratioP1;P2;durP2;ratioP2
59239;SDS011;45010;53.640;10.578;2023-11-21T00:00:47;1.23;;;0.70;;
59239;SDS011;45010;53.640;10.578;2023-11-21T00:03:47;0.77;;;0.70;;
59239;SDS011;45010;53.640;10.578;2023-11-21T00:06:47;1.02;;;0.63;;
59239;SDS011;45010;53.640;10.578;2023-11-21T00:09:48;1.00;;;0.80;;
59239;SDS011;45010;53.640;10.578;2023-11-21T00:12:48;1.08;;;0.77;;
59239;SDS011;45010;53.640;10.578;2023-11-21T00:15:49;2.83;;;0.80;;
59239;SDS011;45010;53.640;10.578;2023-11-21T00:18:49;1.30;;;0.90;;
59239;SDS011;45010;53.640;10.578;2023-11-21T00:21:51;0.90;;;0.80;;
59239;SDS011;45010;53.640;10.578;2023-11-21T00:24:51;1.48;;;1.02;;
59239;SDS011;45010;53.640;10.578;2023-11-21T00:27:52;0.80;;;0.73;;
59239;SDS011;45010;53.640;10.578;2023-11-21T00:30:54;1.40;;;0.80;;
59239;SDS011;45010;53.640;10.578;2023-11-21T00:33:54;0.82;;;0.82;;
59239;SDS011;45010;53.640;10.578;2023-11-21T00:36:55;0.63;;;0.60;;
59239;SDS011;45010;53.640;10.578;2023-11-21T00:39:55;0.85;;;0.73;;
59239;SDS011;45010;53.640;10.578;2023-11-21T00:42:56;0.63;;;0.60;;
59239;SDS011;45010;53.640;10.578;2023-11-21T00:45:56;1.55;;;0.93;;
59239;SDS011;45010;53.640;10.578;2023-11-21T00:48:57;1.95;;;0.80;;
59239;SDS011;45010;53.640;10.578;2023-11-21T00:51:57;0.95;;;0.90;;
59239;SDS011;45010;53.640;10.578;2023-11-21T00:54:58;0.88;;;0.77;;
59239;SDS011;45010;53.640;10.578;2023-11-21T00:58:00;1.13;;;0.70;;
59239;SDS011;45010;53.640;10.578;2023-11-21T01:01:03;1.15;;;0.77;;
59239;SDS011;45010;53.640;10.578;2023-11-21T01:04:03;0.88;;;0.70;;
59239;SDS011;45010;53.640;10.578;2023-11-21T01:07:04;1.83;;;0.77;;
59239;SDS011;45010;53.640;10.578;2023-11-21T01:10:05;1.77;;;0.90;;
59239;SDS011;45010;53.640;10.578;2023-11-21T01:13:08;1.23;;;0.63;;
59239;SDS011;45010;53.640;10.578;2023-11-21T01:16:08;1.35;;;0.88;;
59239;SDS011;45010;53.640;10.578;2023-11-21T01:19:08;1.10;;;0.90;;
59239;SDS011;45010;53.640;10.578;2023-11-21T01:22:09;0.90;;;0.60;;
59239;SDS011;45010;53.640;10.578;2023-11-21T01:25:12;0.70;;;0.70;;
59239;SDS011;45010;53.640;10.578;2023-11-21T01:28:14;0.75;;;0.65;;
59239;SDS011;45010;53.640;10.578;2023-11-21T01:31:14;1.00;;;0.85;;
59239;SDS011;45010;53.640;10.578;2023-11-21T01:34:15;0.70;;;0.60;;
59239;SDS011;45010;53.640;10.578;2023-11-21T01:37:15;0.60;;;0.55;;
59239;SDS011;45010;53.640;10.578;2023-11-21T01:40:17;0.93;;;0.80;;
59239;SDS011;45010;53.640;10.578;2023-11-21T01:43:17;1.20;;;0.80;;
59239;SDS011;45010;53.640;10.578;2023-11-21T01:46:18;1.45;;;0.73;;
59239;SDS011;45010;53.640;10.578;2023-11-21T01:49:19;0.95;;;0.82;;
59239;SDS011;45010;53.640;10.578;2023-11-21T01:52:20;0.77;;;0.65;;
59239;SDS011;45010;53.640;10.578;2023-11-21T01:55:20;0.88;;;0.70;;
59239;SDS011;45010;53.640;10.578;2023-11-21T01:58:21;1.15;;;0.82;;
59239;SDS011;45010;53.640;10.578;2023-11-21T02:01:22;1.45;;;0.70;;
59239;SDS011;45010;53.640;10.578;2023-11-21T02:04:22;0.95;;;0.80;;
59239;SDS011;45010;53.640;10.578;2023-11-21T02:07:22;0.90;;;0.80;;
59239;SDS011;45010;53.640;10.578;2023-11-21T02:10:23;1.23;;;0.60;;
59239;SDS011;45010;53.640;10.578;2023-11-21T02:13:24;1.80;;;0.95;;
59239;SDS011;45010;53.640;10.578;2023-11-21T02:16:24;1.23;;;0.82;;
59239;SDS011;45010;53.640;10.578;2023-11-21T02:19:25;0.90;;;0.80;;
59239;SDS011;45010;53.640;10.578;2023-11-21T02:22:26;0.88;;;0.68;;
59239;SDS011;45010;53.640;10.578;2023-11-21T02:25:31;0.80;;;0.80;;
59239;SDS011;45010;53.640;10.578;2023-11-21T02:28:32;1.25;;;0.80;;
59239;SDS011;45010;53.640;10.578;2023-11-21T02:31:33;1.10;;;0.80;;
59239;SDS011;45010;53.640;10.578;2023-11-21T02:34:33;1.35;;;0.80;;
59239;SDS011;45010;53.640;10.578;2023-11-21T02:37:33;1.00;;;0.80;;
59239;SDS011;45010;53.640;10.578;2023-11-21T02:40:35;0.75;;;0.70;;
59239;SDS011;45010;53.640;10.578;2023-11-21T02:43:35;1.30;;;0.88;;
59239;SDS011;45010;53.640;10.578;2023-11-21T02:46:36;0.63;;;0.60;;
59239;SDS011;45010;53.640;10.578;2023-11-21T02:49:37;0.80;;;0.80;;
59239;SDS011;45010;53.640;10.578;2023-11-21T02:52:37;0.85;;;0.70;;
59239;SDS011;45010;53.640;10.578;2023-11-21T02:55:38;1.17;;;0.95;;
59239;SDS011;45010;53.640;10.578;2023-11-21T02:58:41;1.13;;;0.77;;
59239;SDS011;45010;53.640;10.578;2023-11-21T03:01:43;0.88;;;0.80;;
59239;SDS011;45010;53.640;10.578;2023-11-21T03:04:43;0.80;;;0.80;;
59239;SDS011;45010;53.640;10.578;2023-11-21T03:07:43;1.13;;;0.90;;
59239;SDS011;45010;53.640;10.578;2023-11-21T03:10:44;1.17;;;0.80;;
59239;SDS011;45010;53.640;10.578;2023-11-21T03:13:44;1.00;;;0.90;;
59239;SDS011;45010;53.640;10.578;2023-11-21T03:16:44;0.70;;;0.70;;
59239;SDS011;45010;53.640;10.578;2023-11-21T03:19:45;1.20;;;0.90;;
59239;SDS011;45010;53.640;10.578;2023-11-21T03:22:45;0.88;;;0.88;;
59239;SDS011;45010;53.640;10.578;2023-11-21T03:25:45;1.38;;;0.80;;
59239;SDS011;45010;53.640;10.578;2023-11-21T03:28:46;1.80;;;1.02;;
59239;SDS011;45010;53.640;10.578;2023-11-21T03:31:46;1.00;;;0.77;;
59239;SDS011;45010;53.640;10.578;2023-11-21T03:34:57;1.25;;;0.93;;
59239;SDS011;45010;53.640;10.578;2023-11-21T03:37:58;1.00;;;0.80;;
59239;SDS011;45010;53.640;10.578;2023-11-21T03:40:59;1.23;;;1.10;;
59239;SDS011;45010;53.640;10.578;2023-11-21T03:43:59;1.13;;;0.98;;
59239;SDS011;45010;53.640;10.578;2023-11-21T03:47:00;1.35;;;0.85;;
59239;SDS011;45010;53.640;10.578;2023-11-21T03:50:00;1.30;;;0.73;;
59239;SDS011;45010;53.640;10.578;2023-11-21T03:53:01;1.10;;;1.00;;
59239;SDS011;45010;53.640;10.578;2023-11-21T03:56:02;1.10;;;1.00;;
59239;SDS011;45010;53.640;10.578;2023-11-21T03:59:03;1.27;;;1.02;;
59239;SDS011;45010;53.640;10.578;2023-11-21T04:02:04;1.08;;;0.98;;
59239;SDS011;45010;53.640;10.578;2023-11-21T04:05:04;0.80;;;0.75;;
59239;SDS011;45010;53.640;10.578;2023-11-21T04:08:05;1.63;;;0.90;;
59239;SDS011;45010;53.640;10.578;2023-11-21T04:11:05;1.30;;;0.93;;
59239;SDS011;45010;53.640;10.578;2023-11-21T04:14:05;0.90;;;0.90;;
59239;SDS011;45010;53.640;10.578;2023-11-21T04:17:06;1.10;;;0.90;;
59239;SDS011;45010;53.640;10.578;2023-11-21T04:20:07;0.98;;;0.90;;
59239;SDS011;45010;53.640;10.578;2023-11-21T04:23:09;1.27;;;0.95;;
59239;SDS011;45010;53.640;10.578;2023-11-21T04:26:10;2.92;;;1.10;;
59239;SDS011;45010;53.640;10.578;2023-11-21T04:29:11;2.63;;;1.10;;
59239;SDS011;45010;53.640;10.578;2023-11-21T04:32:11;1.23;;;0.90;;
59239;SDS011;45010;53.640;10.578;2023-11-21T04:35:12;1.23;;;0.88;;
59239;SDS011;45010;53.640;10.578;2023-11-21T04:38:13;0.90;;;0.90;;
59239;SDS011;45010;53.640;10.578;2023-11-21T04:41:13;1.10;;;1.00;;
59239;SDS011;45010;53.640;10.578;2023-11-21T04:44:13;1.33;;;1.00;;
59239;SDS011;45010;53.640;10.578;2023-11-21T04:47:13;0.90;;;0.90;;
59239;SDS011;45010;53.640;10.578;2023-11-21T04:50:14;1.00;;;1.00;;
59239;SDS011;45010;53.640;10.578;2023-11-21T04:53:14;0.88;;;0.88;;
59239;SDS011;45010;53.640;10.578;2023-11-21T04:56:14;1.27;;;1.17;;
59239;SDS011;45010;53.640;10.578;2023-11-21T04:59:16;1.35;;;1.02;;
59239;SDS011;45010;53.640;10.578;2023-11-21T05:02:16;1.42;;;1.15;;
59239;SDS011;45010;53.640;10.578;2023-11-21T05:05:19;1.05;;;0.95;;
59239;SDS011;45010;53.640;10.578;2023-11-21T05:08:19;1.17;;;1.08;;
59239;SDS011;45010;53.640;10.578;2023-11-21T05:11:25;1.35;;;1.20;;
59239;SDS011;45010;53.640;10.578;2023-11-21T05:14:26;1.75;;;1.10;;
59239;SDS011;45010;53.640;10.578;2023-11-21T05:17:27;1.67;;;1.35;;
59239;SDS011;45010;53.640;10.578;2023-11-21T05:20:27;1.38;;;0.85;;
59239;SDS011;45010;53.640;10.578;2023-11-21T05:23:28;1.40;;;0.90;;
59239;SDS011;45010;53.640;10.578;2023-11-21T05:26:28;1.40;;;1.05;;
59239;SDS011;45010;53.640;10.578;2023-11-21T05:29:28;1.10;;;1.00;;
59239;SDS011;45010;53.640;10.578;2023-11-21T05:32:29;1.40;;;1.17;;
59239;SDS011;45010;53.640;10.578;2023-11-21T05:35:29;1.40;;;1.30;;
59239;SDS011;45010;53.640;10.578;2023-11-21T05:38:29;2.22;;;1.20;;
59239;SDS011;45010;53.640;10.578;2023-11-21T05:41:30;1.13;;;1.02;;
59239;SDS011;45010;53.640;10.578;2023-11-21T05:44:30;1.15;;;1.02;;
59239;SDS011;45010;53.640;10.578;2023-11-21T05:47:30;1.13;;;1.00;;
59239;SDS011;45010;53.640;10.578;2023-11-21T05:50:31;1.20;;;0.93;;
59239;SDS011;45010;53.640;10.578;2023-11-21T05:53:32;1.30;;;1.20;;
59239;SDS011;45010;53.640;10.578;2023-11-21T05:56:32;1.10;;;1.00;;
59239;SDS011;45010;53.640;10.578;2023-11-21T05:59:33;1.45;;;1.25;;
59239;SDS011;45010;53.640;10.578;2023-11-21T06:02:33;0.90;;;0.90;;
59239;SDS011;45010;53.640;10.578;2023-11-21T06:05:33;1.27;;;1.17;;
59239;SDS011;45010;53.640;10.578;2023-11-21T06:08:34;2.22;;;1.20;;
59239;SDS011;45010;53.640;10.578;2023-11-21T06:11:34;1.27;;;1.08;;
59239;SDS011;45010;53.640;10.578;2023-11-21T06:14:35;1.17;;;1.08;;
59239;SDS011;45010;53.640;10.578;2023-11-21T06:17:36;1.08;;;0.90;;
59239;SDS011;45010;53.640;10.578;2023-11-21T06:20:37;1.60;;;1.25;;
59239;SDS011;45010;53.640;10.578;2023-11-21T06:23:37;1.00;;;0.90;;
59239;SDS011;45010;53.640;10.578;2023-11-21T06:26:38;1.40;;;1.30;;
59239;SDS011;45010;53.640;10.578;2023-11-21T06:29:38;1.77;;;1.40;;
59239;SDS011;45010;53.640;10.578;2023-11-21T06:32:39;1.10;;;1.00;;
59239;SDS011;45010;53.640;10.578;2023-11-21T06:35:39;1.30;;;1.20;;
59239;SDS011;45010;53.640;10.578;2023-11-21T06:38:40;1.17;;;1.08;;
59239;SDS011;45010;53.640;10.578;2023-11-21T06:41:40;1.55;;;1.35;;
59239;SDS011;45010;53.640;10.578;2023-11-21T06:44:40;1.60;;;1.25;;
59239;SDS011;45010;53.640;10.578;2023-11-21T06:47:41;1.30;;;1.20;;
59239;SDS011;45010;53.640;10.578;2023-11-21T06:50:42;1.33;;;1.23;;
59239;SDS011;45010;53.640;10.578;2023-11-21T06:53:42;1.40;;;1.20;;
59239;SDS011;45010;53.640;10.578;2023-11-21T06:56:42;1.30;;;1.20;;
59239;SDS011;45010;53.640;10.578;2023-11-21T06:59:43;1.27;;;1.17;;
59239;SDS011;45010;53.640;10.578;2023-11-21T07:02:43;1.58;;;1.48;;
59239;SDS011;45010;53.640;10.578;2023-11-21T07:05:44;1.73;;;1.20;;
59239;SDS011;45010;53.640;10.578;2023-11-21T07:08:44;1.25;;;1.13;;
59239;SDS011;45010;53.640;10.578;2023-11-21T07:11:44;1.92;;;1.20;;
59239;SDS011;45010;53.640;10.578;2023-11-21T07:14:45;2.58;;;1.20;;
59239;SDS011;45010;53.640;10.578;2023-11-21T07:17:45;1.40;;;1.30;;
59239;SDS011;45010;53.640;10.578;2023-11-21T07:20:46;1.45;;;1.20;;
59239;SDS011;45010;53.640;10.578;2023-11-21T07:23:47;1.58;;;1.20;;
59239;SDS011;45010;53.640;10.578;2023-11-21T07:26:47;2.17;;;1.45;;
59239;SDS011;45010;53.640;10.578;2023-11-21T07:29:48;1.65;;;1.30;;
59239;SDS011;45010;53.640;10.578;2023-11-21T07:32:48;2.33;;;1.23;;
59239;SDS011;45010;53.640;10.578;2023-11-21T07:35:49;1.63;;;1.20;;
59239;SDS011;45010;53.640;10.578;2023-11-21T07:38:49;1.75;;;1.50;;
59239;SDS011;45010;53.640;10.578;2023-11-21T07:41:50;1.10;;;0.90;;
59239;SDS011;45010;53.640;10.578;2023-11-21T07:44:50;1.65;;;1.23;;
59239;SDS011;45010;53.640;10.578;2023-11-21T07:47:52;1.73;;;1.40;;
59239;SDS011;45010;53.640;10.578;2023-11-21T07:50:52;1.25;;;1.15;;
59239;SDS011;45010;53.640;10.578;2023-11-21T07:53:52;1.70;;;1.20;;
59239;SDS011;45010;53.640;10.578;2023-11-21T07:56:53;1.55;;;1.23;;
59239;SDS011;45010;53.640;10.578;2023-11-21T07:59:53;1.90;;;1.60;;
59239;SDS011;45010;53.640;10.578;2023-11-21T08:02:55;1.50;;;1.35;;
59239;SDS011;45010;53.640;10.578;2023-11-21T08:05:56;1.20;;;1.10;;
59239;SDS011;45010;53.640;10.578;2023-11-21T08:08:57;1.33;;;1.00;;
59239;SDS011;45010;53.640;10.578;2023-11-21T08:11:58;1.33;;;1.23;;
59239;SDS011;45010;53.640;10.578;2023-11-21T08:15:00;1.42;;;1.10;;
59239;SDS011;45010;53.640;10.578;2023-11-21T08:18:02;1.50;;;1.30;;
59239;SDS011;45010;53.640;10.578;2023-11-21T08:21:03;1.50;;;1.17;;
59239;SDS011;45010;53.640;10.578;2023-11-21T08:24:08;1.48;;;1.20;;
59239;SDS011;45010;53.640;10.578;2023-11-21T08:27:10;1.20;;;1.10;;
59239;SDS011;45010;53.640;10.578;2023-11-21T08:30:11;1.80;;;1.48;;
59239;SDS011;45010;53.640;10.578;2023-11-21T08:33:13;1.33;;;1.23;;
59239;SDS011;45010;53.640;10.578;2023-11-21T08:36:14;1.50;;;1.33;;
59239;SDS011;45010;53.640;10.578;2023-11-21T08:39:15;1.30;;;1.20;;
59239;SDS011;45010;53.640;10.578;2023-11-21T08:42:16;1.20;;;1.10;;
59239;SDS011;45010;53.640;10.578;2023-11-21T08:45:18;1.27;;;1.17;;
59239;SDS011;45010;53.640;10.578;2023-11-21T08:48:19;1.65;;;1.15;;
59239;SDS011;45010;53.640;10.578;2023-11-21T08:51:19;1.40;;;1.20;;
59239;SDS011;45010;53.640;10.578;2023-11-21T08:54:20;1.08;;;0.98;;
59239;SDS011;45010;53.640;10.578;2023-11-21T08:57:21;1.92;;;1.40;;
59239;SDS011;45010;53.640;10.578;2023-11-21T09:00:22;1.15;;;1.05;;
59239;SDS011;45010;53.640;10.578;2023-11-21T09:03:22;1.73;;;1.20;;
59239;SDS011;45010;53.640;10.578;2023-11-21T09:06:23;2.60;;;1.30;;
59239;SDS011;45010;53.640;10.578;2023-11-21T09:09:24;2.63;;;1.15;;
59239;SDS011;45010;53.640;10.578;2023-11-21T09:12:24;2.88;;;1.25;;
59239;SDS011;45010;53.640;10.578;2023-11-21T09:15:25;1.95;;;1.08;;
59239;SDS011;45010;53.640;10.578;2023-11-21T09:18:25;1.42;;;1.20;;
59239;SDS011;45010;53.640;10.578;2023-11-21T09:21:25;2.85;;;1.23;;
59239;SDS011;45010;53.640;10.578;2023-11-21T09:24:26;1.95;;;1.42;;
59239;SDS011;45010;53.640;10.578;2023-11-21T09:27:26;2.08;;;1.40;;
59239;SDS011;45010;53.640;10.578;2023-11-21T09:30:26;1.50;;;1.20;;
59239;SDS011;45010;53.640;10.578;2023-11-21T09:33:27;3.50;;;1.30;;
59239;SDS011;45010;53.640;10.578;2023-11-21T09:36:27;1.30;;;1.15;;
59239;SDS011;45010;53.640;10.578;2023-11-21T09:39:30;3.22;;;1.38;;
59239;SDS011;45010;53.640;10.578;2023-11-21T09:42:43;1.25;;;1.15;;
59239;SDS011;45010;53.640;10.578;2023-11-21T09:45:54;4.07;;;1.20;;
59239;SDS011;45010;53.640;10.578;2023-11-21T09:48:59;9.38;;;1.30;;
59239;SDS011;45010;53.640;10.578;2023-11-21T09:52:01;1.92;;;1.20;;
59239;SDS011;45010;53.640;10.578;2023-11-21T09:55:03;2.53;;;1.13;;
59239;SDS011;45010;53.640;10.578;2023-11-21T09:58:05;3.45;;;1.45;;
59239;SDS011;45010;53.640;10.578;2023-11-21T10:01:11;2.35;;;1.38;;
59239;SDS011;45010;53.640;10.578;2023-11-21T10:04:14;1.40;;;1.30;;
59239;SDS011;45010;53.640;10.578;2023-11-21T10:07:16;1.40;;;1.05;;
59239;SDS011;45010;53.640;10.578;2023-11-21T10:10:19;1.50;;;1.38;;
59239;SDS011;45010;53.640;10.578;2023-11-21T10:13:21;1.58;;;1.30;;
59239;SDS011;45010;53.640;10.578;2023-11-21T10:16:22;1.48;;;1.23;;
59239;SDS011;45010;53.640;10.578;2023-11-21T10:19:25;2.40;;;1.08;;
59239;SDS011;45010;53.640;10.578;2023-11-21T10:22:27;1.83;;;1.05;;
59239;SDS011;45010;53.640;10.578;2023-11-21T10:25:28;3.65;;;1.48;;
59239;SDS011;45010;53.640;10.578;2023-11-21T10:28:29;2.03;;;1.25;;
59239;SDS011;45010;53.640;10.578;2023-11-21T10:31:30;1.45;;;1.25;;
59239;SDS011;45010;53.640;10.578;2023-11-21T10:34:31;1.90;;;1.33;;
59239;SDS011;45010;53.640;10.578;2023-11-21T10:37:32;2.38;;;1.60;;
59239;SDS011;45010;53.640;10.578;2023-11-21T10:40:33;1.90;;;1.60;;
59239;SDS011;45010;53.640;10.578;2023-11-21T10:43:33;2.22;;;1.30;;
59239;SDS011;45010;53.640;10.578;2023-11-21T10:46:34;1.70;;;1.42;;
59239;SDS011;45010;53.640;10.578;2023-11-21T10:49:35;2.00;;;1.30;;
59239;SDS011;45010;53.640;10.578;2023-11-21T10:52:37;2.25;;;1.13;;
59239;SDS011;45010;53.640;10.578;2023-11-21T10:55:39;2.58;;;1.45;;
59239;SDS011;45010;53.640;10.578;2023-11-21T10:58:40;1.95;;;1.30;;
59239;SDS011;45010;53.640;10.578;2023-11-21T11:01:42;1.70;;;1.40;;
59239;SDS011;45010;53.640;10.578;2023-11-21T11:04:44;1.88;;;1.60;;
59239;SDS011;45010;53.640;10.578;2023-11-21T11:07:47;3.53;;;1.63;;
59239;SDS011;45010;53.640;10.578;2023-11-21T11:10:54;1.92;;;1.15;;
59239;SDS011;45010;53.640;10.578;2023-11-21T11:13:54;1.35;;;1.20;;
59239;SDS011;45010;53.640;10.578;2023-11-21T11:16:56;2.78;;;1.50;;
59239;SDS011;45010;53.640;10.578;2023-11-21T11:19:59;2.85;;;1.52;;
59239;SDS011;45010;53.640;10.578;2023-11-21T11:26:28;1.98;;;1.30;;
59239;SDS011;45010;53.640;10.578;2023-11-21T11:29:40;2.05;;;1.50;;
59239;SDS011;45010;53.640;10.578;2023-11-21T11:33:03;2.53;;;1.25;;
59239;SDS011;45010;53.640;10.578;2023-11-21T11:36:15;3.15;;;1.27;;
59239;SDS011;45010;53.640;10.578;2023-11-21T11:42:58;1.40;;;1.30;;
59239;SDS011;45010;53.640;10.578;2023-11-21T11:45:59;1.30;;;1.20;;
59239;SDS011;45010;53.640;10.578;2023-11-21T11:49:03;2.22;;;1.25;;
59239;SDS011;45010;53.640;10.578;2023-11-21T11:55:34;1.40;;;1.30;;
59239;SDS011;45010;53.640;10.578;2023-11-21T11:58:37;3.20;;;1.30;;
59239;SDS011;45010;53.640;10.578;2023-11-21T12:01:37;1.27;;;1.15;;
59239;SDS011;45010;53.640;10.578;2023-11-21T12:04:39;2.88;;;1.50;;
59239;SDS011;45010;53.640;10.578;2023-11-21T12:07:48;3.17;;;1.27;;
59239;SDS011;45010;53.640;10.578;2023-11-21T12:10:51;4.40;;;1.40;;
59239;SDS011;45010;53.640;10.578;2023-11-21T12:13:54;2.08;;;1.42;;
59239;SDS011;45010;53.640;10.578;2023-11-21T12:16:54;2.95;;;1.60;;
59239;SDS011;45010;53.640;10.578;2023-11-21T12:20:00;3.10;;;1.40;;
59239;SDS011;45010;53.640;10.578;2023-11-21T12:23:03;2.63;;;1.45;;
59239;SDS011;45010;53.640;10.578;2023-11-21T12:26:05;2.65;;;1.30;;
59239;SDS011;45010;53.640;10.578;2023-11-21T12:29:05;2.92;;;1.25;;
59239;SDS011;45010;53.640;10.578;2023-11-21T12:32:07;4.95;;;1.40;;
59239;SDS011;45010;53.640;10.578;2023-11-21T12:35:08;2.70;;;1.13;;
59239;SDS011;45010;53.640;10.578;2023-11-21T12:38:11;2.13;;;1.25;;
59239;SDS011;45010;53.640;10.578;2023-11-21T12:41:11;2.15;;;1.10;;
59239;SDS011;45010;53.640;10.578;2023-11-21T12:44:12;2.20;;;1.20;;
59239;SDS011;45010;53.640;10.578;2023-11-21T12:47:16;6.30;;;1.60;;
59239;SDS011;45010;53.640;10.578;2023-11-21T12:50:20;129.50;;;24.30;;
59239;SDS011;45010;53.640;10.578;2023-11-21T12:53:23;120.10;;;22.45;;
59239;SDS011;45010;53.640;10.578;2023-11-21T12:56:24;71.15;;;14.82;;
59239;SDS011;45010;53.640;10.578;2023-11-21T12:59:24;61.40;;;12.65;;
59239;SDS011;45010;53.640;10.578;2023-11-21T13:02:29;51.65;;;11.77;;
59239;SDS011;45010;53.640;10.578;2023-11-21T13:05:32;42.63;;;10.13;;
59239;SDS011;45010;53.640;10.578;2023-11-21T13:08:38;32.13;;;8.45;;
59239;SDS011;45010;53.640;10.578;2023-11-21T13:11:39;30.75;;;8.43;;
59239;SDS011;45010;53.640;10.578;2023-11-21T13:14:40;32.00;;;8.80;;
59239;SDS011;45010;53.640;10.578;2023-11-21T13:17:41;26.95;;;8.20;;
59239;SDS011;45010;53.640;10.578;2023-11-21T13:20:41;30.67;;;7.38;;
59239;SDS011;45010;53.640;10.578;2023-11-21T13:23:43;23.92;;;6.50;;
59239;SDS011;45010;53.640;10.578;2023-11-21T13:26:46;22.85;;;6.90;;
59239;SDS011;45010;53.640;10.578;2023-11-21T13:29:47;22.23;;;6.65;;
59239;SDS011;45010;53.640;10.578;2023-11-21T13:32:47;16.60;;;5.57;;
59239;SDS011;45010;53.640;10.578;2023-11-21T13:35:51;26.25;;;6.25;;
59239;SDS011;45010;53.640;10.578;2023-11-21T13:38:52;17.73;;;5.30;;
59239;SDS011;45010;53.640;10.578;2023-11-21T13:41:52;19.58;;;6.53;;
59239;SDS011;45010;53.640;10.578;2023-11-21T13:44:57;17.35;;;4.95;;
59239;SDS011;45010;53.640;10.578;2023-11-21T13:47:58;13.85;;;4.72;;
59239;SDS011;45010;53.640;10.578;2023-11-21T13:50:58;12.68;;;5.00;;
59239;SDS011;45010;53.640;10.578;2023-11-21T13:54:01;16.52;;;5.40;;
59239;SDS011;45010;53.640;10.578;2023-11-21T13:57:02;14.35;;;4.72;;
59239;SDS011;45010;53.640;10.578;2023-11-21T14:00:03;14.82;;;4.63;;
59239;SDS011;45010;53.640;10.578;2023-11-21T14:03:11;12.38;;;4.93;;
59239;SDS011;45010;53.640;10.578;2023-11-21T14:06:22;11.88;;;4.13;;
59239;SDS011;45010;53.640;10.578;2023-11-21T14:09:27;14.15;;;4.50;;
59239;SDS011;45010;53.640;10.578;2023-11-21T14:12:35;11.07;;;4.15;;
59239;SDS011;45010;53.640;10.578;2023-11-21T14:15:39;12.75;;;4.50;;
59239;SDS011;45010;53.640;10.578;2023-11-21T14:18:43;12.57;;;4.35;;
59239;SDS011;45010;53.640;10.578;2023-11-21T14:21:55;13.55;;;4.35;;
59239;SDS011;45010;53.640;10.578;2023-11-21T14:24:56;11.52;;;3.90;;
59239;SDS011;45010;53.640;10.578;2023-11-21T14:27:58;12.68;;;3.97;;
59239;SDS011;45010;53.640;10.578;2023-11-21T14:30:59;12.75;;;3.70;;
59239;SDS011;45010;53.640;10.578;2023-11-21T14:33:59;9.18;;;3.78;;
59239;SDS011;45010;53.640;10.578;2023-11-21T14:37:01;8.95;;;3.80;;
59239;SDS011;45010;53.640;10.578;2023-11-21T14:40:05;9.82;;;3.47;;
59239;SDS011;45010;53.640;10.578;2023-11-21T14:43:07;10.40;;;3.88;;
59239;SDS011;45010;53.640;10.578;2023-11-21T14:46:08;6.95;;;3.25;;
59239;SDS011;45010;53.640;10.578;2023-11-21T14:49:10;8.63;;;3.40;;
59239;SDS011;45010;53.640;10.578;2023-11-21T14:52:20;9.98;;;3.60;;
59239;SDS011;45010;53.640;10.578;2023-11-21T14:55:33;9.18;;;3.72;;
59239;SDS011;45010;53.640;10.578;2023-11-21T14:58:43;8.55;;;3.17;;
59239;SDS011;45010;53.640;10.578;2023-11-21T15:01:43;6.93;;;3.13;;
59239;SDS011;45010;53.640;10.578;2023-11-21T15:04:55;9.88;;;3.33;;
59239;SDS011;45010;53.640;10.578;2023-11-21T15:08:02;7.90;;;2.95;;
59239;SDS011;45010;53.640;10.578;2023-11-21T15:11:17;7.32;;;3.00;;
59239;SDS011;45010;53.640;10.578;2023-11-21T15:14:17;6.32;;;2.55;;
59239;SDS011;45010;53.640;10.578;2023-11-21T15:17:23;8.27;;;3.22;;
59239;SDS011;45010;53.640;10.578;2023-11-21T15:20:27;9.23;;;2.78;;
59239;SDS011;45010;53.640;10.578;2023-11-21T15:23:27;8.63;;;3.00;;
59239;SDS011;45010;53.640;10.578;2023-11-21T15:26:29;6.30;;;2.85;;
59239;SDS011;45010;53.640;10.578;2023-11-21T15:29:30;5.20;;;2.40;;
59239;SDS011;45010;53.640;10.578;2023-11-21T15:32:31;5.32;;;2.95;;
59239;SDS011;45010;53.640;10.578;2023-11-21T15:35:31;7.07;;;2.55;;
59239;SDS011;45010;53.640;10.578;2023-11-21T15:38:32;5.15;;;2.85;;
59239;SDS011;45010;53.640;10.578;2023-11-21T15:41:32;5.03;;;2.42;;
59239;SDS011;45010;53.640;10.578;2023-11-21T15:44:33;6.00;;;2.50;;
59239;SDS011;45010;53.640;10.578;2023-11-21T15:47:34;5.30;;;2.85;;
59239;SDS011;45010;53.640;10.578;2023-11-21T15:50:35;6.03;;;2.45;;
59239;SDS011;45010;53.640;10.578;2023-11-21T15:53:36;5.35;;;2.45;;
59239;SDS011;45010;53.640;10.578;2023-11-21T15:56:38;4.47;;;2.40;;
59239;SDS011;45010;53.640;10.578;2023-11-21T15:59:39;5.75;;;2.47;;
59239;SDS011;45010;53.640;10.578;2023-11-21T16:02:45;5.55;;;2.20;;
59239;SDS011;45010;53.640;10.578;2023-11-21T16:05:46;5.45;;;2.30;;
59239;SDS011;45010;53.640;10.578;2023-11-21T16:08:46;4.18;;;2.17;;
59239;SDS011;45010;53.640;10.578;2023-11-21T16:11:48;4.05;;;2.17;;
59239;SDS011;45010;53.640;10.578;2023-11-21T16:14:53;4.28;;;2.33;;
59239;SDS011;45010;53.640;10.578;2023-11-21T16:17:54;4.45;;;2.35;;
59239;SDS011;45010;53.640;10.578;2023-11-21T16:20:54;3.70;;;1.83;;
59239;SDS011;45010;53.640;10.578;2023-11-21T16:23:54;4.60;;;1.95;;
59239;SDS011;45010;53.640;10.578;2023-11-21T16:26:55;3.70;;;2.40;;
59239;SDS011;45010;53.640;10.578;2023-11-21T16:29:57;3.08;;;2.17;;
59239;SDS011;45010;53.640;10.578;2023-11-21T16:32:58;4.50;;;2.00;;
59239;SDS011;45010;53.640;10.578;2023-11-21T16:35:58;3.65;;;1.83;;
59239;SDS011;45010;53.640;10.578;2023-11-21T16:38:59;3.53;;;1.85;;
59239;SDS011;45010;53.640;10.578;2023-11-21T16:41:59;5.70;;;2.20;;
59239;SDS011;45010;53.640;10.578;2023-11-21T16:44:59;5.97;;;2.10;;
59239;SDS011;45010;53.640;10.578;2023-11-21T16:48:00;9.93;;;2.70;;
59239;SDS011;45010;53.640;10.578;2023-11-21T16:51:02;11.30;;;2.90;;
59239;SDS011;45010;53.640;10.578;2023-11-21T16:54:03;13.02;;;2.53;;
59239;SDS011;45010;53.640;10.578;2023-11-21T16:57:04;15.60;;;2.83;;
59239;SDS011;45010;53.640;10.578;2023-11-21T17:00:05;11.68;;;2.30;;
59239;SDS011;45010;53.640;10.578;2023-11-21T17:03:11;6.65;;;2.55;;
59239;SDS011;45010;53.640;10.578;2023-11-21T17:06:12;10.20;;;2.60;;
59239;SDS011;45010;53.640;10.578;2023-11-21T17:09:12;9.18;;;2.70;;
59239;SDS011;45010;53.640;10.578;2023-11-21T17:12:14;5.95;;;2.47;;
59239;SDS011;45010;53.640;10.578;2023-11-21T17:15:15;6.35;;;2.33;;
59239;SDS011;45010;53.640;10.578;2023-11-21T17:18:16;7.43;;;2.70;;
59239;SDS011;45010;53.640;10.578;2023-11-21T17:21:17;8.02;;;2.95;;
59239;SDS011;45010;53.640;10.578;2023-11-21T17:24:18;12.93;;;3.08;;
59239;SDS011;45010;53.640;10.578;2023-11-21T17:27:18;9.68;;;3.35;;
59239;SDS011;45010;53.640;10.578;2023-11-21T17:30:19;9.85;;;3.35;;
59239;SDS011;45010;53.640;10.578;2023-11-21T17:33:19;11.30;;;3.28;;
59239;SDS011;45010;53.640;10.578;2023-11-21T17:36:20;14.85;;;4.00;;
59239;SDS011;45010;53.640;10.578;2023-11-21T17:39:21;11.52;;;2.45;;
59239;SDS011;45010;53.640;10.578;2023-11-21T17:42:23;10.70;;;2.97;;
59239;SDS011;45010;53.640;10.578;2023-11-21T17:45:23;8.30;;;2.70;;
59239;SDS011;45010;53.640;10.578;2023-11-21T17:48:24;12.98;;;4.07;;
59239;SDS011;45010;53.640;10.578;2023-11-21T17:51:29;7.05;;;2.60;;
59239;SDS011;45010;53.640;10.578;2023-11-21T17:54:30;7.07;;;2.60;;
59239;SDS011;45010;53.640;10.578;2023-11-21T17:57:31;8.90;;;3.13;;
59239;SDS011;45010;53.640;10.578;2023-11-21T18:00:32;6.85;;;3.17;;
59239;SDS011;45010;53.640;10.578;2023-11-21T18:03:33;6.85;;;2.85;;
59239;SDS011;45010;53.640;10.578;2023-11-21T18:06:34;6.60;;;2.65;;